sensor_id;sensor_type;location;lat;lon;timestamp;temperature;humidity
69895;DHT22;57172;52.034;5.090;2022-11-15T00:01:42;8.10;75.90
69895;DHT22;57172;52.034;5.090;2022-11-15T00:04:28;8.10;76.20
69895;DHT22;57172;52.034;5.090;2022-11-15T00:07:14;8.10;76.50
69895;DHT22;57172;52.034;5.090;2022-11-15T00:10:19;8.10;77.10
69895;DHT22;57172;52.034;5.090;2022-11-15T00:13:10;8.00;77.40
69895;DHT22;57172;52.034;5.090;2022-11-15T00:16:00;8.00;77.40
69895;DHT22;57172;52.034;5.090;2022-11-15T00:18:46;8.00;78.30
69895;DHT22;57172;52.034;5.090;2022-11-15T00:21:35;7.90;78.90
69895;DHT22;57172;52.034;5.090;2022-11-15T00:24:20;7.80;79.60
69895;DHT22;57172;52.034;5.090;2022-11-15T00:27:05;7.80;79.10
69895;DHT22;57172;52.034;5.090;2022-11-15T00:29:52;7.90;78.80
69895;DHT22;57172;52.034;5.090;2022-11-15T00:32:38;8.00;78.70
69895;DHT22;57172;52.034;5.090;2022-11-15T00:35:23;8.00;78.60
69895;DHT22;57172;52.034;5.090;2022-11-15T00:38:09;8.10;78.50
69895;DHT22;57172;52.034;5.090;2022-11-15T00:40:54;8.10;78.70
69895;DHT22;57172;52.034;5.090;2022-11-15T00:43:40;8.10;79.00
69895;DHT22;57172;52.034;5.090;2022-11-15T00:46:28;8.10;79.00
69895;DHT22;57172;52.034;5.090;2022-11-15T00:49:14;8.10;79.40
69895;DHT22;57172;52.034;5.090;2022-11-15T00:51:59;8.10;79.40
69895;DHT22;57172;52.034;5.090;2022-11-15T00:54:45;8.10;79.60
69895;DHT22;57172;52.034;5.090;2022-11-15T00:57:30;8.10;79.50
69895;DHT22;57172;52.034;5.090;2022-11-15T01:00:16;8.20;79.30
69895;DHT22;57172;52.034;5.090;2022-11-15T01:03:01;8.20;80.10
69895;DHT22;57172;52.034;5.090;2022-11-15T01:05:47;8.20;80.10
69895;DHT22;57172;52.034;5.090;2022-11-15T01:08:32;8.20;80.00
69895;DHT22;57172;52.034;5.090;2022-11-15T01:11:17;8.30;79.90
69895;DHT22;57172;52.034;5.090;2022-11-15T01:14:03;8.30;79.90
69895;DHT22;57172;52.034;5.090;2022-11-15T01:16:49;8.40;79.80
69895;DHT22;57172;52.034;5.090;2022-11-15T01:19:34;8.40;79.80
69895;DHT22;57172;52.034;5.090;2022-11-15T01:22:20;8.40;79.80
69895;DHT22;57172;52.034;5.090;2022-11-15T01:25:05;8.40;79.80
69895;DHT22;57172;52.034;5.090;2022-11-15T01:27:51;8.50;79.80
69895;DHT22;57172;52.034;5.090;2022-11-15T01:30:36;8.50;79.70
69895;DHT22;57172;52.034;5.090;2022-11-15T01:33:22;8.60;79.50
69895;DHT22;57172;52.034;5.090;2022-11-15T01:36:12;8.60;79.50
69895;DHT22;57172;52.034;5.090;2022-11-15T01:38:58;8.60;79.50
69895;DHT22;57172;52.034;5.090;2022-11-15T01:41:44;8.70;79.50
69895;DHT22;57172;52.034;5.090;2022-11-15T01:44:51;8.70;79.60
69895;DHT22;57172;52.034;5.090;2022-11-15T01:47:40;8.80;79.50
69895;DHT22;57172;52.034;5.090;2022-11-15T01:50:29;8.80;79.60
69895;DHT22;57172;52.034;5.090;2022-11-15T01:53:17;8.80;79.50
69895;DHT22;57172;52.034;5.090;2022-11-15T01:56:06;8.80;80.40
69895;DHT22;57172;52.034;5.090;2022-11-15T01:58:55;8.80;80.30
69895;DHT22;57172;52.034;5.090;2022-11-15T02:01:41;8.80;80.20
69895;DHT22;57172;52.034;5.090;2022-11-15T02:04:32;8.90;80.20
69895;DHT22;57172;52.034;5.090;2022-11-15T02:07:20;8.90;80.00
69895;DHT22;57172;52.034;5.090;2022-11-15T02:10:10;9.00;80.20
69895;DHT22;57172;52.034;5.090;2022-11-15T02:12:57;9.00;80.70
69895;DHT22;57172;52.034;5.090;2022-11-15T02:16:04;9.00;80.50
69895;DHT22;57172;52.034;5.090;2022-11-15T02:22:28;9.10;81.00
69895;DHT22;57172;52.034;5.090;2022-11-15T02:31:51;9.30;82.50
69895;DHT22;57172;52.034;5.090;2022-11-15T02:35:09;9.30;82.70
69895;DHT22;57172;52.034;5.090;2022-11-15T02:38:28;9.30;83.00
69895;DHT22;57172;52.034;5.090;2022-11-15T02:41:36;9.40;82.80
69895;DHT22;57172;52.034;5.090;2022-11-15T02:44:26;9.40;82.70
69895;DHT22;57172;52.034;5.090;2022-11-15T02:47:16;9.50;83.10
69895;DHT22;57172;52.034;5.090;2022-11-15T02:50:08;9.50;83.00
69895;DHT22;57172;52.034;5.090;2022-11-15T02:52:54;9.50;82.90
69895;DHT22;57172;52.034;5.090;2022-11-15T02:55:50;9.60;83.10
69895;DHT22;57172;52.034;5.090;2022-11-15T03:05:18;9.70;83.20
69895;DHT22;57172;52.034;5.090;2022-11-15T03:11:07;9.70;83.40
69895;DHT22;57172;52.034;5.090;2022-11-15T03:13:56;9.80;83.50
69895;DHT22;57172;52.034;5.090;2022-11-15T03:19:51;9.90;83.20
69895;DHT22;57172;52.034;5.090;2022-11-15T03:22:41;9.90;83.10
69895;DHT22;57172;52.034;5.090;2022-11-15T03:25:28;9.90;83.40
69895;DHT22;57172;52.034;5.090;2022-11-15T03:28:23;10.00;83.30
69895;DHT22;57172;52.034;5.090;2022-11-15T03:31:12;10.00;83.40
69895;DHT22;57172;52.034;5.090;2022-11-15T03:34:34;10.00;83.40
69895;DHT22;57172;52.034;5.090;2022-11-15T03:37:34;10.10;83.30
69895;DHT22;57172;52.034;5.090;2022-11-15T03:40:35;10.10;83.40
69895;DHT22;57172;52.034;5.090;2022-11-15T03:46:33;10.20;83.10
69895;DHT22;57172;52.034;5.090;2022-11-15T03:49:25;10.30;83.10
69895;DHT22;57172;52.034;5.090;2022-11-15T03:52:17;10.30;83.00
69895;DHT22;57172;52.034;5.090;2022-11-15T03:55:05;10.40;82.90
69895;DHT22;57172;52.034;5.090;2022-11-15T03:57:55;10.40;82.90
69895;DHT22;57172;52.034;5.090;2022-11-15T04:00:43;10.40;83.00
69895;DHT22;57172;52.034;5.090;2022-11-15T04:03:28;10.50;82.90
69895;DHT22;57172;52.034;5.090;2022-11-15T04:06:14;10.50;82.70
69895;DHT22;57172;52.034;5.090;2022-11-15T04:09:00;10.50;82.70
69895;DHT22;57172;52.034;5.090;2022-11-15T04:11:45;10.50;82.80
69895;DHT22;57172;52.034;5.090;2022-11-15T04:14:31;10.60;82.60
69895;DHT22;57172;52.034;5.090;2022-11-15T04:17:16;10.60;82.70
69895;DHT22;57172;52.034;5.090;2022-11-15T04:20:07;10.60;82.90
69895;DHT22;57172;52.034;5.090;2022-11-15T04:23:21;10.70;83.10
69895;DHT22;57172;52.034;5.090;2022-11-15T04:26:26;10.70;83.30
69895;DHT22;57172;52.034;5.090;2022-11-15T04:29:11;10.70;83.50
69895;DHT22;57172;52.034;5.090;2022-11-15T04:32:15;10.80;83.10
69895;DHT22;57172;52.034;5.090;2022-11-15T04:35:01;10.80;83.10
69895;DHT22;57172;52.034;5.090;2022-11-15T04:37:46;10.90;83.10
69895;DHT22;57172;52.034;5.090;2022-11-15T04:40:35;10.90;82.50
69895;DHT22;57172;52.034;5.090;2022-11-15T04:43:20;10.90;82.30
69895;DHT22;57172;52.034;5.090;2022-11-15T04:46:06;10.90;82.60
69895;DHT22;57172;52.034;5.090;2022-11-15T04:48:52;10.90;83.00
69895;DHT22;57172;52.034;5.090;2022-11-15T04:51:43;10.90;83.10
69895;DHT22;57172;52.034;5.090;2022-11-15T04:54:29;10.90;82.80
69895;DHT22;57172;52.034;5.090;2022-11-15T04:57:14;10.90;83.10
69895;DHT22;57172;52.034;5.090;2022-11-15T05:00:01;10.90;83.30
69895;DHT22;57172;52.034;5.090;2022-11-15T05:02:47;11.00;83.50
69895;DHT22;57172;52.034;5.090;2022-11-15T05:05:51;11.00;83.60
69895;DHT22;57172;52.034;5.090;2022-11-15T05:08:37;11.00;83.60
69895;DHT22;57172;52.034;5.090;2022-11-15T05:11:22;11.00;83.60
69895;DHT22;57172;52.034;5.090;2022-11-15T05:14:09;11.00;83.70
69895;DHT22;57172;52.034;5.090;2022-11-15T05:16:55;11.10;83.80
69895;DHT22;57172;52.034;5.090;2022-11-15T05:19:40;11.10;83.80
69895;DHT22;57172;52.034;5.090;2022-11-15T05:22:26;11.10;83.70
69895;DHT22;57172;52.034;5.090;2022-11-15T05:25:11;11.20;83.40
69895;DHT22;57172;52.034;5.090;2022-11-15T05:27:57;11.20;83.40
69895;DHT22;57172;52.034;5.090;2022-11-15T05:30:42;11.20;83.40
69895;DHT22;57172;52.034;5.090;2022-11-15T05:33:28;11.20;83.40
69895;DHT22;57172;52.034;5.090;2022-11-15T05:36:36;11.30;83.20
69895;DHT22;57172;52.034;5.090;2022-11-15T05:39:22;11.30;82.90
69895;DHT22;57172;52.034;5.090;2022-11-15T05:42:13;11.30;83.20
69895;DHT22;57172;52.034;5.090;2022-11-15T05:45:00;11.30;83.20
69895;DHT22;57172;52.034;5.090;2022-11-15T05:47:48;11.40;83.10
69895;DHT22;57172;52.034;5.090;2022-11-15T05:50:36;11.40;83.10
69895;DHT22;57172;52.034;5.090;2022-11-15T05:53:24;11.40;83.00
69895;DHT22;57172;52.034;5.090;2022-11-15T05:56:11;11.40;83.30
69895;DHT22;57172;52.034;5.090;2022-11-15T05:58:58;11.40;83.40
69895;DHT22;57172;52.034;5.090;2022-11-15T06:01:44;11.40;83.30
69895;DHT22;57172;52.034;5.090;2022-11-15T06:04:30;11.40;83.10
69895;DHT22;57172;52.034;5.090;2022-11-15T06:07:16;11.40;83.00
69895;DHT22;57172;52.034;5.090;2022-11-15T06:10:01;11.50;82.90
69895;DHT22;57172;52.034;5.090;2022-11-15T06:12:46;11.50;83.00
69895;DHT22;57172;52.034;5.090;2022-11-15T06:15:32;11.40;83.10
69895;DHT22;57172;52.034;5.090;2022-11-15T06:18:19;11.40;83.10
69895;DHT22;57172;52.034;5.090;2022-11-15T06:21:05;11.40;83.00
69895;DHT22;57172;52.034;5.090;2022-11-15T06:23:50;11.40;83.10
69895;DHT22;57172;52.034;5.090;2022-11-15T06:26:36;11.40;83.30
69895;DHT22;57172;52.034;5.090;2022-11-15T06:29:21;11.40;83.20
69895;DHT22;57172;52.034;5.090;2022-11-15T06:32:07;11.40;83.30
69895;DHT22;57172;52.034;5.090;2022-11-15T06:34:52;11.40;83.10
69895;DHT22;57172;52.034;5.090;2022-11-15T06:37:38;11.50;82.90
69895;DHT22;57172;52.034;5.090;2022-11-15T06:40:23;11.50;83.00
69895;DHT22;57172;52.034;5.090;2022-11-15T06:43:09;11.50;83.00
69895;DHT22;57172;52.034;5.090;2022-11-15T06:45:54;11.50;83.00
69895;DHT22;57172;52.034;5.090;2022-11-15T06:48:40;11.50;83.00
69895;DHT22;57172;52.034;5.090;2022-11-15T06:51:25;11.50;82.90
69895;DHT22;57172;52.034;5.090;2022-11-15T06:54:11;11.50;82.80
69895;DHT22;57172;52.034;5.090;2022-11-15T06:56:56;11.50;82.60
69895;DHT22;57172;52.034;5.090;2022-11-15T06:59:42;11.50;82.40
69895;DHT22;57172;52.034;5.090;2022-11-15T07:02:27;11.50;82.30
69895;DHT22;57172;52.034;5.090;2022-11-15T07:05:13;11.50;82.30
69895;DHT22;57172;52.034;5.090;2022-11-15T07:07:59;11.40;82.50
69895;DHT22;57172;52.034;5.090;2022-11-15T07:10:44;11.40;82.80
69895;DHT22;57172;52.034;5.090;2022-11-15T07:13:31;11.40;82.80
69895;DHT22;57172;52.034;5.090;2022-11-15T07:16:19;11.30;82.80
69895;DHT22;57172;52.034;5.090;2022-11-15T07:19:04;11.30;83.00
69895;DHT22;57172;52.034;5.090;2022-11-15T07:21:50;11.30;83.00
69895;DHT22;57172;52.034;5.090;2022-11-15T07:24:36;11.30;82.90
69895;DHT22;57172;52.034;5.090;2022-11-15T07:27:21;11.30;82.80
69895;DHT22;57172;52.034;5.090;2022-11-15T07:30:07;11.30;82.90
69895;DHT22;57172;52.034;5.090;2022-11-15T07:32:54;11.30;83.00
69895;DHT22;57172;52.034;5.090;2022-11-15T07:35:39;11.30;83.10
69895;DHT22;57172;52.034;5.090;2022-11-15T07:38:25;11.30;83.00
69895;DHT22;57172;52.034;5.090;2022-11-15T07:41:11;11.30;82.90
69895;DHT22;57172;52.034;5.090;2022-11-15T07:43:56;11.30;82.80
69895;DHT22;57172;52.034;5.090;2022-11-15T07:46:43;11.30;82.80
69895;DHT22;57172;52.034;5.090;2022-11-15T07:49:28;11.30;82.80
69895;DHT22;57172;52.034;5.090;2022-11-15T07:52:14;11.30;82.80
69895;DHT22;57172;52.034;5.090;2022-11-15T07:54:59;11.30;82.80
69895;DHT22;57172;52.034;5.090;2022-11-15T07:57:44;11.30;82.70
69895;DHT22;57172;52.034;5.090;2022-11-15T08:00:30;11.40;82.70
69895;DHT22;57172;52.034;5.090;2022-11-15T08:03:16;11.40;82.50
69895;DHT22;57172;52.034;5.090;2022-11-15T08:06:03;11.40;82.40
69895;DHT22;57172;52.034;5.090;2022-11-15T08:08:49;11.40;82.30
69895;DHT22;57172;52.034;5.090;2022-11-15T08:11:34;11.50;82.20
69895;DHT22;57172;52.034;5.090;2022-11-15T08:14:20;11.50;82.10
69895;DHT22;57172;52.034;5.090;2022-11-15T08:17:07;11.60;82.00
69895;DHT22;57172;52.034;5.090;2022-11-15T08:19:53;11.60;81.80
69895;DHT22;57172;52.034;5.090;2022-11-15T08:22:38;11.60;81.70
69895;DHT22;57172;52.034;5.090;2022-11-15T08:25:25;11.60;81.50
69895;DHT22;57172;52.034;5.090;2022-11-15T08:28:16;11.70;81.50
69895;DHT22;57172;52.034;5.090;2022-11-15T08:31:03;11.70;81.30
69895;DHT22;57172;52.034;5.090;2022-11-15T08:33:48;11.80;81.30
69895;DHT22;57172;52.034;5.090;2022-11-15T08:36:34;11.80;81.00
69895;DHT22;57172;52.034;5.090;2022-11-15T08:39:30;11.90;80.80
69895;DHT22;57172;52.034;5.090;2022-11-15T08:42:16;12.00;80.40
69895;DHT22;57172;52.034;5.090;2022-11-15T08:45:05;12.00;80.60
69895;DHT22;57172;52.034;5.090;2022-11-15T08:47:50;12.10;80.30
69895;DHT22;57172;52.034;5.090;2022-11-15T08:50:38;12.20;79.70
69895;DHT22;57172;52.034;5.090;2022-11-15T08:53:24;12.30;79.30
69895;DHT22;57172;52.034;5.090;2022-11-15T08:56:11;12.30;78.70
69895;DHT22;57172;52.034;5.090;2022-11-15T08:58:56;12.30;78.40
69895;DHT22;57172;52.034;5.090;2022-11-15T09:01:42;12.40;78.20
69895;DHT22;57172;52.034;5.090;2022-11-15T09:04:27;12.50;77.90
69895;DHT22;57172;52.034;5.090;2022-11-15T09:07:13;12.50;77.20
69895;DHT22;57172;52.034;5.090;2022-11-15T09:09:59;12.50;77.10
69895;DHT22;57172;52.034;5.090;2022-11-15T09:12:44;12.60;77.30
69895;DHT22;57172;52.034;5.090;2022-11-15T09:15:33;12.70;78.40
69895;DHT22;57172;52.034;5.090;2022-11-15T09:18:19;13.10;77.50
69895;DHT22;57172;52.034;5.090;2022-11-15T09:21:07;13.60;79.30
69895;DHT22;57172;52.034;5.090;2022-11-15T09:23:53;14.00;77.40
69895;DHT22;57172;52.034;5.090;2022-11-15T09:26:39;14.10;74.50
69895;DHT22;57172;52.034;5.090;2022-11-15T09:29:24;14.30;73.80
69895;DHT22;57172;52.034;5.090;2022-11-15T09:32:10;14.50;74.60
69895;DHT22;57172;52.034;5.090;2022-11-15T09:34:56;14.90;75.10
69895;DHT22;57172;52.034;5.090;2022-11-15T09:37:41;15.50;75.80
69895;DHT22;57172;52.034;5.090;2022-11-15T09:40:27;16.10;74.30
69895;DHT22;57172;52.034;5.090;2022-11-15T09:43:29;16.30;68.00
69895;DHT22;57172;52.034;5.090;2022-11-15T09:46:24;16.10;66.70
69895;DHT22;57172;52.034;5.090;2022-11-15T09:49:16;15.90;65.10
69895;DHT22;57172;52.034;5.090;2022-11-15T09:52:20;15.70;67.00
69895;DHT22;57172;52.034;5.090;2022-11-15T09:54:49;15.90;67.60
69895;DHT22;57172;52.034;5.090;2022-11-15T09:57:41;16.10;66.10
69895;DHT22;57172;52.034;5.090;2022-11-15T10:00:24;16.00;65.10
69895;DHT22;57172;52.034;5.090;2022-11-15T10:03:25;15.90;64.70
69895;DHT22;57172;52.034;5.090;2022-11-15T10:05:55;15.90;63.80
69895;DHT22;57172;52.034;5.090;2022-11-15T10:11:27;15.80;63.10
69895;DHT22;57172;52.034;5.090;2022-11-15T10:14:20;15.60;64.00
69895;DHT22;57172;52.034;5.090;2022-11-15T10:22:40;17.10;64.40
69895;DHT22;57172;52.034;5.090;2022-11-15T10:25:23;17.30;61.40
69895;DHT22;57172;52.034;5.090;2022-11-15T10:28:01;17.20;59.80
69895;DHT22;57172;52.034;5.090;2022-11-15T10:30:37;17.10;60.30
69895;DHT22;57172;52.034;5.090;2022-11-15T10:39:01;17.70;60.40
69895;DHT22;57172;52.034;5.090;2022-11-15T10:41:34;18.00;58.60
69895;DHT22;57172;52.034;5.090;2022-11-15T10:46:46;18.40;57.80
69895;DHT22;57172;52.034;5.090;2022-11-15T10:49:17;18.90;57.80
69895;DHT22;57172;52.034;5.090;2022-11-15T10:52:02;19.30;55.10
69895;DHT22;57172;52.034;5.090;2022-11-15T10:54:36;19.20;53.20
69895;DHT22;57172;52.034;5.090;2022-11-15T10:57:25;18.90;53.10
69895;DHT22;57172;52.034;5.090;2022-11-15T11:05:27;19.10;52.40
69895;DHT22;57172;52.034;5.090;2022-11-15T11:08:03;19.40;52.90
69895;DHT22;57172;52.034;5.090;2022-11-15T11:10:31;19.70;50.30
69895;DHT22;57172;52.034;5.090;2022-11-15T11:13:23;19.50;50.90
69895;DHT22;57172;52.034;5.090;2022-11-15T11:24:36;18.70;50.70
69895;DHT22;57172;52.034;5.090;2022-11-15T11:41:04;19.40;50.50
69895;DHT22;57172;52.034;5.090;2022-11-15T11:54:43;18.80;50.90
69895;DHT22;57172;52.034;5.090;2022-11-15T11:57:25;18.80;52.00
69895;DHT22;57172;52.034;5.090;2022-11-15T11:59:59;19.10;51.60
69895;DHT22;57172;52.034;5.090;2022-11-15T12:02:41;19.30;51.40
69895;DHT22;57172;52.034;5.090;2022-11-15T12:05:26;19.50;51.20
69895;DHT22;57172;52.034;5.090;2022-11-15T12:11:03;19.70;50.30
69895;DHT22;57172;52.034;5.090;2022-11-15T12:13:34;19.70;50.70
69895;DHT22;57172;52.034;5.090;2022-11-15T12:16:21;20.00;50.90
69895;DHT22;57172;52.034;5.090;2022-11-15T12:18:53;20.30;49.00
69895;DHT22;57172;52.034;5.090;2022-11-15T12:21:41;20.30;49.00
69895;DHT22;57172;52.034;5.090;2022-11-15T12:24:23;20.40;48.30
69895;DHT22;57172;52.034;5.090;2022-11-15T12:26:57;20.50;48.40
69895;DHT22;57172;52.034;5.090;2022-11-15T12:29:45;20.50;48.50
69895;DHT22;57172;52.034;5.090;2022-11-15T12:32:30;20.80;48.50
69895;DHT22;57172;52.034;5.090;2022-11-15T12:34:58;21.00;46.80
69895;DHT22;57172;52.034;5.090;2022-11-15T12:45:42;21.10;46.60
69895;DHT22;57172;52.034;5.090;2022-11-15T12:56:20;20.80;46.20
69895;DHT22;57172;52.034;5.090;2022-11-15T12:58:51;20.80;44.80
69895;DHT22;57172;52.034;5.090;2022-11-15T13:06:49;19.90;46.60
69895;DHT22;57172;52.034;5.090;2022-11-15T13:12:52;19.80;46.20
69895;DHT22;57172;52.034;5.090;2022-11-15T13:17:49;19.00;46.90
69895;DHT22;57172;52.034;5.090;2022-11-15T13:33:16;18.20;48.60
69895;DHT22;57172;52.034;5.090;2022-11-15T13:35:48;17.90;49.10
69895;DHT22;57172;52.034;5.090;2022-11-15T13:40:52;17.30;50.10
69895;DHT22;57172;52.034;5.090;2022-11-15T13:46:22;16.70;51.40
69895;DHT22;57172;52.034;5.090;2022-11-15T13:48:58;16.50;51.90
69895;DHT22;57172;52.034;5.090;2022-11-15T13:51:38;16.30;52.40
69895;DHT22;57172;52.034;5.090;2022-11-15T13:57:04;16.20;53.20
69895;DHT22;57172;52.034;5.090;2022-11-15T13:59:32;16.10;53.50
69895;DHT22;57172;52.034;5.090;2022-11-15T14:02:03;16.10;53.50
69895;DHT22;57172;52.034;5.090;2022-11-15T14:04:39;15.90;53.70
69895;DHT22;57172;52.034;5.090;2022-11-15T14:07:17;15.80;54.20
69895;DHT22;57172;52.034;5.090;2022-11-15T14:09:45;15.80;54.50
69895;DHT22;57172;52.034;5.090;2022-11-15T14:12:32;15.70;54.70
69895;DHT22;57172;52.034;5.090;2022-11-15T14:15:18;15.70;55.00
69895;DHT22;57172;52.034;5.090;2022-11-15T14:17:45;15.60;55.40
69895;DHT22;57172;52.034;5.090;2022-11-15T14:22:55;15.50;56.20
69895;DHT22;57172;52.034;5.090;2022-11-15T14:25:24;15.50;56.30
69895;DHT22;57172;52.034;5.090;2022-11-15T14:28:33;15.40;56.40
69895;DHT22;57172;52.034;5.090;2022-11-15T14:31:00;15.30;56.70
69895;DHT22;57172;52.034;5.090;2022-11-15T14:33:35;15.20;56.80
69895;DHT22;57172;52.034;5.090;2022-11-15T14:38:40;15.10;57.20
69895;DHT22;57172;52.034;5.090;2022-11-15T14:41:22;15.00;57.50
69895;DHT22;57172;52.034;5.090;2022-11-15T14:43:50;15.00;57.80
69895;DHT22;57172;52.034;5.090;2022-11-15T14:46:17;15.00;57.80
69895;DHT22;57172;52.034;5.090;2022-11-15T14:48:44;14.90;58.00
69895;DHT22;57172;52.034;5.090;2022-11-15T14:51:13;14.80;58.10
69895;DHT22;57172;52.034;5.090;2022-11-15T14:53:41;14.80;58.20
69895;DHT22;57172;52.034;5.090;2022-11-15T14:56:08;14.70;58.20
69895;DHT22;57172;52.034;5.090;2022-11-15T14:58:35;14.70;58.20
69895;DHT22;57172;52.034;5.090;2022-11-15T15:01:17;14.70;58.40
69895;DHT22;57172;52.034;5.090;2022-11-15T15:03:45;14.70;58.50
69895;DHT22;57172;52.034;5.090;2022-11-15T15:06:12;14.60;58.50
69895;DHT22;57172;52.034;5.090;2022-11-15T15:08:44;14.50;58.60
69895;DHT22;57172;52.034;5.090;2022-11-15T15:11:31;14.50;58.60
69895;DHT22;57172;52.034;5.090;2022-11-15T15:13:57;14.40;58.80
69895;DHT22;57172;52.034;5.090;2022-11-15T15:16:26;14.30;58.90
69895;DHT22;57172;52.034;5.090;2022-11-15T15:18:52;14.30;59.10
69895;DHT22;57172;52.034;5.090;2022-11-15T15:21:22;14.30;58.90
69895;DHT22;57172;52.034;5.090;2022-11-15T15:23:50;14.20;58.80
69895;DHT22;57172;52.034;5.090;2022-11-15T15:26:17;14.20;58.80
69895;DHT22;57172;52.034;5.090;2022-11-15T15:28:44;14.10;58.90
69895;DHT22;57172;52.034;5.090;2022-11-15T15:31:11;14.10;58.90
69895;DHT22;57172;52.034;5.090;2022-11-15T15:33:38;14.10;58.90
69895;DHT22;57172;52.034;5.090;2022-11-15T15:36:05;14.00;59.00
69895;DHT22;57172;52.034;5.090;2022-11-15T15:38:32;14.00;59.20
69895;DHT22;57172;52.034;5.090;2022-11-15T15:40:59;14.00;59.20
69895;DHT22;57172;52.034;5.090;2022-11-15T15:43:28;13.90;59.40
69895;DHT22;57172;52.034;5.090;2022-11-15T15:45:55;13.90;59.50
69895;DHT22;57172;52.034;5.090;2022-11-15T15:48:21;13.90;59.70
69895;DHT22;57172;52.034;5.090;2022-11-15T15:50:48;13.90;59.80
69895;DHT22;57172;52.034;5.090;2022-11-15T15:53:15;13.80;59.80
69895;DHT22;57172;52.034;5.090;2022-11-15T15:55:43;13.80;60.00
69895;DHT22;57172;52.034;5.090;2022-11-15T15:58:10;13.80;60.00
69895;DHT22;57172;52.034;5.090;2022-11-15T16:00:37;13.70;60.00
69895;DHT22;57172;52.034;5.090;2022-11-15T16:03:05;13.70;60.00
69895;DHT22;57172;52.034;5.090;2022-11-15T16:05:32;13.70;60.20
69895;DHT22;57172;52.034;5.090;2022-11-15T16:07:58;13.70;60.10
69895;DHT22;57172;52.034;5.090;2022-11-15T16:10:28;13.70;60.20
69895;DHT22;57172;52.034;5.090;2022-11-15T16:12:57;13.80;60.30
69895;DHT22;57172;52.034;5.090;2022-11-15T16:15:26;13.80;60.50
69895;DHT22;57172;52.034;5.090;2022-11-15T16:17:57;13.80;60.40
69895;DHT22;57172;52.034;5.090;2022-11-15T16:20:42;13.80;60.40
69895;DHT22;57172;52.034;5.090;2022-11-15T16:23:13;13.80;60.50
69895;DHT22;57172;52.034;5.090;2022-11-15T16:25:51;13.80;60.40
69895;DHT22;57172;52.034;5.090;2022-11-15T16:33:26;13.70;60.90
69895;DHT22;57172;52.034;5.090;2022-11-15T16:35:53;13.70;61.10
69895;DHT22;57172;52.034;5.090;2022-11-15T16:38:20;13.70;61.20
69895;DHT22;57172;52.034;5.090;2022-11-15T16:40:46;13.70;61.60
69895;DHT22;57172;52.034;5.090;2022-11-15T16:43:14;13.60;61.80
69895;DHT22;57172;52.034;5.090;2022-11-15T16:45:40;13.50;62.10
69895;DHT22;57172;52.034;5.090;2022-11-15T16:48:24;13.50;62.30
69895;DHT22;57172;52.034;5.090;2022-11-15T16:50:56;13.40;62.80
69895;DHT22;57172;52.034;5.090;2022-11-15T16:53:23;13.30;63.40
69895;DHT22;57172;52.034;5.090;2022-11-15T16:55:50;13.20;64.40
69895;DHT22;57172;52.034;5.090;2022-11-15T16:58:17;13.00;65.50
69895;DHT22;57172;52.034;5.090;2022-11-15T17:00:44;12.80;65.90
69895;DHT22;57172;52.034;5.090;2022-11-15T17:03:11;12.70;66.90
69895;DHT22;57172;52.034;5.090;2022-11-15T17:05:38;12.60;66.90
69895;DHT22;57172;52.034;5.090;2022-11-15T17:08:05;12.60;67.40
69895;DHT22;57172;52.034;5.090;2022-11-15T17:10:32;12.50;68.00
69895;DHT22;57172;52.034;5.090;2022-11-15T17:13:02;12.50;68.40
69895;DHT22;57172;52.034;5.090;2022-11-15T17:15:28;12.40;69.00
69895;DHT22;57172;52.034;5.090;2022-11-15T17:17:55;12.30;69.30
69895;DHT22;57172;52.034;5.090;2022-11-15T17:20:23;12.30;69.70
69895;DHT22;57172;52.034;5.090;2022-11-15T17:22:50;12.30;70.00
69895;DHT22;57172;52.034;5.090;2022-11-15T17:25:19;12.30;70.30
69895;DHT22;57172;52.034;5.090;2022-11-15T17:27:46;12.30;70.50
69895;DHT22;57172;52.034;5.090;2022-11-15T17:30:13;12.30;70.70
69895;DHT22;57172;52.034;5.090;2022-11-15T17:32:41;12.30;71.10
69895;DHT22;57172;52.034;5.090;2022-11-15T17:35:10;12.20;71.40
69895;DHT22;57172;52.034;5.090;2022-11-15T17:37:41;12.10;71.60
69895;DHT22;57172;52.034;5.090;2022-11-15T17:40:09;12.10;71.90
69895;DHT22;57172;52.034;5.090;2022-11-15T17:42:36;12.00;72.20
69895;DHT22;57172;52.034;5.090;2022-11-15T17:45:06;12.00;72.70
69895;DHT22;57172;52.034;5.090;2022-11-15T17:47:36;11.90;73.00
69895;DHT22;57172;52.034;5.090;2022-11-15T17:50:03;11.90;73.20
69895;DHT22;57172;52.034;5.090;2022-11-15T17:52:30;11.90;73.50
69895;DHT22;57172;52.034;5.090;2022-11-15T17:54:57;11.80;73.80
69895;DHT22;57172;52.034;5.090;2022-11-15T17:57:23;11.80;74.00
69895;DHT22;57172;52.034;5.090;2022-11-15T17:59:50;11.70;74.50
69895;DHT22;57172;52.034;5.090;2022-11-15T18:02:17;11.70;74.60
69895;DHT22;57172;52.034;5.090;2022-11-15T18:04:45;11.70;74.70
69895;DHT22;57172;52.034;5.090;2022-11-15T18:07:11;11.70;74.90
69895;DHT22;57172;52.034;5.090;2022-11-15T18:09:40;11.70;75.20
69895;DHT22;57172;52.034;5.090;2022-11-15T18:12:10;11.60;75.60
69895;DHT22;57172;52.034;5.090;2022-11-15T18:14:37;11.60;75.60
69895;DHT22;57172;52.034;5.090;2022-11-15T18:17:04;11.60;76.00
69895;DHT22;57172;52.034;5.090;2022-11-15T18:19:31;11.60;76.10
69895;DHT22;57172;52.034;5.090;2022-11-15T18:21:58;11.60;76.40
69895;DHT22;57172;52.034;5.090;2022-11-15T18:24:28;11.60;76.40
69895;DHT22;57172;52.034;5.090;2022-11-15T18:26:57;11.60;76.50
69895;DHT22;57172;52.034;5.090;2022-11-15T18:29:24;11.60;76.70
69895;DHT22;57172;52.034;5.090;2022-11-15T18:31:51;11.60;76.90
69895;DHT22;57172;52.034;5.090;2022-11-15T18:34:22;11.60;76.70
69895;DHT22;57172;52.034;5.090;2022-11-15T18:36:51;11.70;77.10
69895;DHT22;57172;52.034;5.090;2022-11-15T18:39:18;11.60;77.20
69895;DHT22;57172;52.034;5.090;2022-11-15T18:41:46;11.70;77.20
69895;DHT22;57172;52.034;5.090;2022-11-15T18:44:13;11.70;77.40
69895;DHT22;57172;52.034;5.090;2022-11-15T18:46:41;11.60;77.40
69895;DHT22;57172;52.034;5.090;2022-11-15T18:49:09;11.70;77.50
69895;DHT22;57172;52.034;5.090;2022-11-15T18:51:37;11.70;77.70
69895;DHT22;57172;52.034;5.090;2022-11-15T18:54:09;11.70;77.70
69895;DHT22;57172;52.034;5.090;2022-11-15T18:56:36;11.70;77.80
69895;DHT22;57172;52.034;5.090;2022-11-15T18:59:04;11.70;77.80
69895;DHT22;57172;52.034;5.090;2022-11-15T19:01:34;11.70;77.70
69895;DHT22;57172;52.034;5.090;2022-11-15T19:04:07;11.80;77.90
69895;DHT22;57172;52.034;5.090;2022-11-15T19:06:40;11.80;78.00
69895;DHT22;57172;52.034;5.090;2022-11-15T19:09:08;11.80;77.90
69895;DHT22;57172;52.034;5.090;2022-11-15T19:11:37;11.90;77.90
69895;DHT22;57172;52.034;5.090;2022-11-15T19:16:35;11.90;78.30
69895;DHT22;57172;52.034;5.090;2022-11-15T19:19:05;11.90;78.30
69895;DHT22;57172;52.034;5.090;2022-11-15T19:21:33;11.90;78.50
69895;DHT22;57172;52.034;5.090;2022-11-15T19:24:00;11.90;78.50